sensor_id;sensor_type;location;lat;lon;timestamp;temperature;humidity
77056;SHT30;67471;44.918;8.614;2023-05-28T00:00:07;21.34;71.15
77056;SHT30;67471;44.918;8.614;2023-05-28T00:03:16;21.26;71.32
77056;SHT30;67471;44.918;8.614;2023-05-28T00:06:20;21.30;71.33
77056;SHT30;67471;44.918;8.614;2023-05-28T00:09:24;21.33;71.24
77056;SHT30;67471;44.918;8.614;2023-05-28T00:12:28;21.26;70.87
77056;SHT30;67471;44.918;8.614;2023-05-28T00:15:31;21.22;70.74
77056;SHT30;67471;44.918;8.614;2023-05-28T00:18:35;21.54;70.06
77056;SHT30;67471;44.918;8.614;2023-05-28T00:21:39;21.77;69.73
77056;SHT30;67471;44.918;8.614;2023-05-28T00:24:43;21.91;69.81
77056;SHT30;67471;44.918;8.614;2023-05-28T00:27:47;22.04;70.13
77056;SHT30;67471;44.918;8.614;2023-05-28T00:30:51;22.09;70.35
77056;SHT30;67471;44.918;8.614;2023-05-28T00:33:55;22.10;70.53
77056;SHT30;67471;44.918;8.614;2023-05-28T00:36:59;22.20;70.59
77056;SHT30;67471;44.918;8.614;2023-05-28T00:40:03;22.19;70.39
77056;SHT30;67471;44.918;8.614;2023-05-28T00:43:08;22.12;69.99
77056;SHT30;67471;44.918;8.614;2023-05-28T00:46:11;22.01;68.69
77056;SHT30;67471;44.918;8.614;2023-05-28T00:49:15;21.79;66.82
77056;SHT30;67471;44.918;8.614;2023-05-28T00:52:19;21.88;67.39
77056;SHT30;67471;44.918;8.614;2023-05-28T00:55:23;21.98;67.57
77056;SHT30;67471;44.918;8.614;2023-05-28T00:58:27;22.04;66.16
77056;SHT30;67471;44.918;8.614;2023-05-28T01:01:31;21.81;66.24
77056;SHT30;67471;44.918;8.614;2023-05-28T01:04:35;21.95;66.27
77056;SHT30;67471;44.918;8.614;2023-05-28T01:07:39;22.08;66.40
77056;SHT30;67471;44.918;8.614;2023-05-28T01:10:43;22.29;66.36
77056;SHT30;67471;44.918;8.614;2023-05-28T01:13:48;22.36;66.37
77056;SHT30;67471;44.918;8.614;2023-05-28T01:16:54;22.43;66.45
77056;SHT30;67471;44.918;8.614;2023-05-28T01:19:58;22.40;66.43
77056;SHT30;67471;44.918;8.614;2023-05-28T01:23:18;22.18;67.32
77056;SHT30;67471;44.918;8.614;2023-05-28T01:26:24;22.19;68.08
77056;SHT30;67471;44.918;8.614;2023-05-28T01:29:29;21.99;69.62
77056;SHT30;67471;44.918;8.614;2023-05-28T01:32:33;22.06;69.77
77056;SHT30;67471;44.918;8.614;2023-05-28T01:35:38;22.01;70.32
77056;SHT30;67471;44.918;8.614;2023-05-28T01:38:43;21.92;71.33
77056;SHT30;67471;44.918;8.614;2023-05-28T01:41:50;22.02;71.75
77056;SHT30;67471;44.918;8.614;2023-05-28T01:44:56;22.08;71.80
77056;SHT30;67471;44.918;8.614;2023-05-28T01:48:00;22.05;72.07
77056;SHT30;67471;44.918;8.614;2023-05-28T01:51:04;21.92;72.46
77056;SHT30;67471;44.918;8.614;2023-05-28T01:54:08;21.79;73.17
77056;SHT30;67471;44.918;8.614;2023-05-28T01:57:12;21.74;73.27
77056;SHT30;67471;44.918;8.614;2023-05-28T02:00:16;21.71;73.28
77056;SHT30;67471;44.918;8.614;2023-05-28T02:03:20;21.64;73.90
77056;SHT30;67471;44.918;8.614;2023-05-28T02:06:24;21.58;73.98
77056;SHT30;67471;44.918;8.614;2023-05-28T02:09:28;21.46;74.49
77056;SHT30;67471;44.918;8.614;2023-05-28T02:12:32;21.58;74.22
77056;SHT30;67471;44.918;8.614;2023-05-28T02:15:35;21.44;74.47
77056;SHT30;67471;44.918;8.614;2023-05-28T02:18:39;21.48;74.67
77056;SHT30;67471;44.918;8.614;2023-05-28T02:21:45;21.34;75.09
77056;SHT30;67471;44.918;8.614;2023-05-28T02:24:48;21.24;75.38
77056;SHT30;67471;44.918;8.614;2023-05-28T02:27:53;21.40;75.14
77056;SHT30;67471;44.918;8.614;2023-05-28T02:30:57;21.36;75.30
77056;SHT30;67471;44.918;8.614;2023-05-28T02:34:01;21.31;75.44
77056;SHT30;67471;44.918;8.614;2023-05-28T02:37:05;21.16;76.23
77056;SHT30;67471;44.918;8.614;2023-05-28T02:40:10;21.20;76.13
77056;SHT30;67471;44.918;8.614;2023-05-28T02:43:14;21.06;76.61
77056;SHT30;67471;44.918;8.614;2023-05-28T02:46:19;21.23;76.31
77056;SHT30;67471;44.918;8.614;2023-05-28T02:49:23;21.14;76.34
77056;SHT30;67471;44.918;8.614;2023-05-28T02:52:26;21.20;76.28
77056;SHT30;67471;44.918;8.614;2023-05-28T02:55:30;21.22;76.31
77056;SHT30;67471;44.918;8.614;2023-05-28T02:58:34;21.19;76.35
77056;SHT30;67471;44.918;8.614;2023-05-28T03:01:40;21.16;76.59
77056;SHT30;67471;44.918;8.614;2023-05-28T03:04:44;21.14;76.79
77056;SHT30;67471;44.918;8.614;2023-05-28T03:07:48;21.22;76.46
77056;SHT30;67471;44.918;8.614;2023-05-28T03:10:52;21.14;76.73
77056;SHT30;67471;44.918;8.614;2023-05-28T03:13:56;21.19;76.60
77056;SHT30;67471;44.918;8.614;2023-05-28T03:17:00;21.09;76.89
77056;SHT30;67471;44.918;8.614;2023-05-28T03:20:04;20.99;77.29
77056;SHT30;67471;44.918;8.614;2023-05-28T03:23:11;21.00;77.57
77056;SHT30;67471;44.918;8.614;2023-05-28T03:26:29;21.09;76.92
77056;SHT30;67471;44.918;8.614;2023-05-28T03:29:34;21.07;76.95
77056;SHT30;67471;44.918;8.614;2023-05-28T03:32:44;21.11;77.08
77056;SHT30;67471;44.918;8.614;2023-05-28T03:35:48;21.02;77.22
77056;SHT30;67471;44.918;8.614;2023-05-28T03:38:52;20.97;77.56
77056;SHT30;67471;44.918;8.614;2023-05-28T03:41:55;20.95;78.01
77056;SHT30;67471;44.918;8.614;2023-05-28T03:45:03;20.88;78.30
77056;SHT30;67471;44.918;8.614;2023-05-28T03:48:08;20.73;78.63
77056;SHT30;67471;44.918;8.614;2023-05-28T03:51:12;20.73;78.63
77056;SHT30;67471;44.918;8.614;2023-05-28T03:54:16;20.76;78.85
77056;SHT30;67471;44.918;8.614;2023-05-28T03:57:22;20.68;79.19
77056;SHT30;67471;44.918;8.614;2023-05-28T04:00:25;20.71;79.31
77056;SHT30;67471;44.918;8.614;2023-05-28T04:03:29;20.66;79.30
77056;SHT30;67471;44.918;8.614;2023-05-28T04:06:34;20.76;79.14
77056;SHT30;67471;44.918;8.614;2023-05-28T04:09:38;20.82;78.75
77056;SHT30;67471;44.918;8.614;2023-05-28T04:12:42;20.93;78.53
77056;SHT30;67471;44.918;8.614;2023-05-28T04:15:45;20.89;78.41
77056;SHT30;67471;44.918;8.614;2023-05-28T04:18:49;20.95;78.28
77056;SHT30;67471;44.918;8.614;2023-05-28T04:21:55;20.95;78.39
77056;SHT30;67471;44.918;8.614;2023-05-28T04:24:58;20.83;78.69
77056;SHT30;67471;44.918;8.614;2023-05-28T04:28:03;20.82;78.98
77056;SHT30;67471;44.918;8.614;2023-05-28T04:31:07;20.75;79.04
77056;SHT30;67471;44.918;8.614;2023-05-28T04:34:12;20.83;78.77
77056;SHT30;67471;44.918;8.614;2023-05-28T04:37:19;20.79;78.83
77056;SHT30;67471;44.918;8.614;2023-05-28T04:40:24;20.82;78.62
77056;SHT30;67471;44.918;8.614;2023-05-28T04:43:28;20.95;78.30
77056;SHT30;67471;44.918;8.614;2023-05-28T04:46:33;21.03;77.96
77056;SHT30;67471;44.918;8.614;2023-05-28T04:49:36;20.99;78.22
77056;SHT30;67471;44.918;8.614;2023-05-28T04:52:40;20.92;78.04
77056;SHT30;67471;44.918;8.614;2023-05-28T04:55:44;20.82;78.65
77056;SHT30;67471;44.918;8.614;2023-05-28T04:58:48;20.90;78.70
77056;SHT30;67471;44.918;8.614;2023-05-28T05:01:52;20.92;78.49
77056;SHT30;67471;44.918;8.614;2023-05-28T05:04:56;21.03;77.98
77056;SHT30;67471;44.918;8.614;2023-05-28T05:08:01;21.14;77.82
77056;SHT30;67471;44.918;8.614;2023-05-28T05:11:05;21.14;77.74
77056;SHT30;67471;44.918;8.614;2023-05-28T05:14:09;21.17;77.92
77056;SHT30;67471;44.918;8.614;2023-05-28T05:17:13;21.19;77.89
77056;SHT30;67471;44.918;8.614;2023-05-28T05:20:17;21.30;77.64
77056;SHT30;67471;44.918;8.614;2023-05-28T05:23:21;21.31;77.42
77056;SHT30;67471;44.918;8.614;2023-05-28T05:26:26;21.43;77.12
77056;SHT30;67471;44.918;8.614;2023-05-28T05:29:29;21.44;77.24
77056;SHT30;67471;44.918;8.614;2023-05-28T05:32:34;21.55;76.90
77056;SHT30;67471;44.918;8.614;2023-05-28T05:35:37;21.50;77.21
77056;SHT30;67471;44.918;8.614;2023-05-28T05:39:01;21.61;76.95
77056;SHT30;67471;44.918;8.614;2023-05-28T05:42:27;21.79;76.24
77056;SHT30;67471;44.918;8.614;2023-05-28T05:45:32;21.91;75.75
77056;SHT30;67471;44.918;8.614;2023-05-28T05:48:36;21.91;75.91
77056;SHT30;67471;44.918;8.614;2023-05-28T05:51:40;21.87;76.06
77056;SHT30;67471;44.918;8.614;2023-05-28T05:54:44;21.94;75.98
77056;SHT30;67471;44.918;8.614;2023-05-28T05:57:48;21.97;75.86
77056;SHT30;67471;44.918;8.614;2023-05-28T06:00:53;22.09;75.23
77056;SHT30;67471;44.918;8.614;2023-05-28T06:03:58;22.20;74.93
77056;SHT30;67471;44.918;8.614;2023-05-28T06:07:13;22.29;74.18
77056;SHT30;67471;44.918;8.614;2023-05-28T06:10:45;22.47;73.25
77056;SHT30;67471;44.918;8.614;2023-05-28T06:13:50;22.76;72.52
77056;SHT30;67471;44.918;8.614;2023-05-28T06:16:55;23.01;71.49
77056;SHT30;67471;44.918;8.614;2023-05-28T06:19:59;23.44;69.88
77056;SHT30;67471;44.918;8.614;2023-05-28T06:23:06;23.82;68.53
77056;SHT30;67471;44.918;8.614;2023-05-28T06:26:10;24.26;66.71
77056;SHT30;67471;44.918;8.614;2023-05-28T06:29:14;24.43;66.04
77056;SHT30;67471;44.918;8.614;2023-05-28T06:32:18;24.48;65.41
77056;SHT30;67471;44.918;8.614;2023-05-28T06:35:22;24.82;64.74
77056;SHT30;67471;44.918;8.614;2023-05-28T06:38:25;25.54;62.00
77056;SHT30;67471;44.918;8.614;2023-05-28T06:41:29;26.06;60.51
77056;SHT30;67471;44.918;8.614;2023-05-28T06:44:33;26.34;59.59
77056;SHT30;67471;44.918;8.614;2023-05-28T06:47:46;26.53;58.72
77056;SHT30;67471;44.918;8.614;2023-05-28T06:50:49;26.59;58.43
77056;SHT30;67471;44.918;8.614;2023-05-28T06:53:53;26.72;57.87
77056;SHT30;67471;44.918;8.614;2023-05-28T06:57:01;26.90;57.14
77056;SHT30;67471;44.918;8.614;2023-05-28T07:00:20;27.37;55.96
77056;SHT30;67471;44.918;8.614;2023-05-28T07:03:32;27.58;55.07
77056;SHT30;67471;44.918;8.614;2023-05-28T07:06:41;27.50;55.31
77056;SHT30;67471;44.918;8.614;2023-05-28T07:09:51;27.06;56.34
77056;SHT30;67471;44.918;8.614;2023-05-28T07:12:55;26.66;57.06
77056;SHT30;67471;44.918;8.614;2023-05-28T07:16:00;26.21;58.45
77056;SHT30;67471;44.918;8.614;2023-05-28T07:19:04;26.02;58.63
77056;SHT30;67471;44.918;8.614;2023-05-28T07:22:08;25.70;58.91
77056;SHT30;67471;44.918;8.614;2023-05-28T07:25:12;25.57;59.24
77056;SHT30;67471;44.918;8.614;2023-05-28T07:28:16;25.53;59.36
77056;SHT30;67471;44.918;8.614;2023-05-28T07:31:20;25.50;59.33
77056;SHT30;67471;44.918;8.614;2023-05-28T07:34:24;25.94;58.70
77056;SHT30;67471;44.918;8.614;2023-05-28T07:37:28;26.06;58.48
77056;SHT30;67471;44.918;8.614;2023-05-28T07:40:32;25.98;58.97
77056;SHT30;67471;44.918;8.614;2023-05-28T07:43:45;25.70;59.93
77056;SHT30;67471;44.918;8.614;2023-05-28T07:46:56;25.83;59.59
77056;SHT30;67471;44.918;8.614;2023-05-28T07:50:19;25.46;60.21
77056;SHT30;67471;44.918;8.614;2023-05-28T07:53:49;25.35;60.67
77056;SHT30;67471;44.918;8.614;2023-05-28T07:56:56;25.29;60.85
77056;SHT30;67471;44.918;8.614;2023-05-28T08:00:06;25.19;61.30
77056;SHT30;67471;44.918;8.614;2023-05-28T08:03:29;25.81;60.17
77056;SHT30;67471;44.918;8.614;2023-05-28T08:06:35;26.04;59.68
77056;SHT30;67471;44.918;8.614;2023-05-28T08:09:41;26.68;57.80
77056;SHT30;67471;44.918;8.614;2023-05-28T08:12:44;27.35;55.69
77056;SHT30;67471;44.918;8.614;2023-05-28T08:15:48;27.55;54.54
77056;SHT30;67471;44.918;8.614;2023-05-28T08:18:54;28.14;53.08
77056;SHT30;67471;44.918;8.614;2023-05-28T08:21:59;28.19;53.41
77056;SHT30;67471;44.918;8.614;2023-05-28T08:25:06;27.58;53.90
77056;SHT30;67471;44.918;8.614;2023-05-28T08:28:10;27.40;55.18
77056;SHT30;67471;44.918;8.614;2023-05-28T08:31:14;27.64;54.56
77056;SHT30;67471;44.918;8.614;2023-05-28T08:34:34;27.24;55.81
77056;SHT30;67471;44.918;8.614;2023-05-28T08:37:39;27.72;55.03
77056;SHT30;67471;44.918;8.614;2023-05-28T08:40:54;28.42;52.95
77056;SHT30;67471;44.918;8.614;2023-05-28T08:43:59;29.01;50.82
77056;SHT30;67471;44.918;8.614;2023-05-28T08:47:02;28.90;50.43
77056;SHT30;67471;44.918;8.614;2023-05-28T08:50:12;28.43;51.32
77056;SHT30;67471;44.918;8.614;2023-05-28T08:53:31;28.06;52.47
77056;SHT30;67471;44.918;8.614;2023-05-28T08:56:38;28.53;51.81
77056;SHT30;67471;44.918;8.614;2023-05-28T08:59:44;29.08;50.54
77056;SHT30;67471;44.918;8.614;2023-05-28T09:02:49;29.22;48.66
77056;SHT30;67471;44.918;8.614;2023-05-28T09:05:52;29.14;48.85
77056;SHT30;67471;44.918;8.614;2023-05-28T09:08:57;29.43;48.33
77056;SHT30;67471;44.918;8.614;2023-05-28T09:12:20;29.79;48.01
77056;SHT30;67471;44.918;8.614;2023-05-28T09:15:26;30.24;47.10
77056;SHT30;67471;44.918;8.614;2023-05-28T09:18:31;30.55;46.10
77056;SHT30;67471;44.918;8.614;2023-05-28T09:21:35;30.93;45.21
77056;SHT30;67471;44.918;8.614;2023-05-28T09:24:49;30.81;45.15
77056;SHT30;67471;44.918;8.614;2023-05-28T09:27:56;29.84;45.45
77056;SHT30;67471;44.918;8.614;2023-05-28T09:31:04;30.25;45.81
77056;SHT30;67471;44.918;8.614;2023-05-28T09:34:09;30.83;44.58
77056;SHT30;67471;44.918;8.614;2023-05-28T09:37:15;30.88;44.26
77056;SHT30;67471;44.918;8.614;2023-05-28T09:40:19;30.96;44.98
77056;SHT30;67471;44.918;8.614;2023-05-28T09:43:29;30.51;44.08
77056;SHT30;67471;44.918;8.614;2023-05-28T09:46:34;30.45;43.90
77056;SHT30;67471;44.918;8.614;2023-05-28T09:49:38;30.67;43.30
77056;SHT30;67471;44.918;8.614;2023-05-28T09:52:45;30.72;43.61
77056;SHT30;67471;44.918;8.614;2023-05-28T09:55:49;30.64;43.94
77056;SHT30;67471;44.918;8.614;2023-05-28T09:58:53;30.82;43.42
77056;SHT30;67471;44.918;8.614;2023-05-28T10:02:03;31.13;42.79
77056;SHT30;67471;44.918;8.614;2023-05-28T10:05:13;31.19;42.07
77056;SHT30;67471;44.918;8.614;2023-05-28T10:08:21;31.30;40.89
77056;SHT30;67471;44.918;8.614;2023-05-28T10:11:27;31.02;40.60
77056;SHT30;67471;44.918;8.614;2023-05-28T10:14:33;31.23;40.69
77056;SHT30;67471;44.918;8.614;2023-05-28T10:17:37;31.27;40.30
77056;SHT30;67471;44.918;8.614;2023-05-28T10:20:42;30.76;41.00
77056;SHT30;67471;44.918;8.614;2023-05-28T10:23:46;30.24;42.41
77056;SHT30;67471;44.918;8.614;2023-05-28T10:26:50;30.95;41.64
77056;SHT30;67471;44.918;8.614;2023-05-28T10:29:55;29.74;43.45
77056;SHT30;67471;44.918;8.614;2023-05-28T10:32:59;29.46;42.93
77056;SHT30;67471;44.918;8.614;2023-05-28T10:36:03;29.05;42.99
77056;SHT30;67471;44.918;8.614;2023-05-28T10:39:13;29.52;42.07
77056;SHT30;67471;44.918;8.614;2023-05-28T10:42:18;29.93;42.03
77056;SHT30;67471;44.918;8.614;2023-05-28T10:45:38;29.96;41.82
77056;SHT30;67471;44.918;8.614;2023-05-28T10:49:19;29.80;42.05
77056;SHT30;67471;44.918;8.614;2023-05-28T10:52:25;29.65;42.07
77056;SHT30;67471;44.918;8.614;2023-05-28T10:55:29;29.00;43.47
77056;SHT30;67471;44.918;8.614;2023-05-28T10:58:34;29.00;44.03
77056;SHT30;67471;44.918;8.614;2023-05-28T11:01:38;29.43;43.04
77056;SHT30;67471;44.918;8.614;2023-05-28T11:04:42;29.84;42.83
77056;SHT30;67471;44.918;8.614;2023-05-28T11:07:46;30.10;41.86
77056;SHT30;67471;44.918;8.614;2023-05-28T11:10:49;29.89;41.78
77056;SHT30;67471;44.918;8.614;2023-05-28T11:13:54;30.11;41.23
77056;SHT30;67471;44.918;8.614;2023-05-28T11:16:57;30.38;40.93
77056;SHT30;67471;44.918;8.614;2023-05-28T11:20:01;30.54;40.61
77056;SHT30;67471;44.918;8.614;2023-05-28T11:23:14;30.32;40.75
77056;SHT30;67471;44.918;8.614;2023-05-28T11:26:21;30.16;40.51
77056;SHT30;67471;44.918;8.614;2023-05-28T11:29:26;29.73;40.83
77056;SHT30;67471;44.918;8.614;2023-05-28T11:32:32;29.97;41.79
77056;SHT30;67471;44.918;8.614;2023-05-28T11:35:36;30.14;41.69
77056;SHT30;67471;44.918;8.614;2023-05-28T11:38:40;30.20;42.04
77056;SHT30;67471;44.918;8.614;2023-05-28T11:41:45;29.48;42.48
77056;SHT30;67471;44.918;8.614;2023-05-28T11:44:49;29.59;42.47
77056;SHT30;67471;44.918;8.614;2023-05-28T11:47:54;29.14;42.57
77056;SHT30;67471;44.918;8.614;2023-05-28T11:50:59;29.11;43.39
77056;SHT30;67471;44.918;8.614;2023-05-28T11:54:04;29.80;42.25
77056;SHT30;67471;44.918;8.614;2023-05-28T11:57:08;29.74;41.31
77056;SHT30;67471;44.918;8.614;2023-05-28T12:00:12;29.22;42.29
77056;SHT30;67471;44.918;8.614;2023-05-28T12:03:19;28.65;43.36
77056;SHT30;67471;44.918;8.614;2023-05-28T12:06:23;29.08;42.72
77056;SHT30;67471;44.918;8.614;2023-05-28T12:09:27;29.36;43.24
77056;SHT30;67471;44.918;8.614;2023-05-28T12:12:32;29.87;42.55
77056;SHT30;67471;44.918;8.614;2023-05-28T12:15:35;30.24;41.36
77056;SHT30;67471;44.918;8.614;2023-05-28T12:18:43;29.02;43.21
77056;SHT30;67471;44.918;8.614;2023-05-28T12:21:46;29.79;42.11
77056;SHT30;67471;44.918;8.614;2023-05-28T12:24:51;29.56;42.12
77056;SHT30;67471;44.918;8.614;2023-05-28T12:27:56;29.56;41.67
77056;SHT30;67471;44.918;8.614;2023-05-28T12:31:01;29.80;41.53
77056;SHT30;67471;44.918;8.614;2023-05-28T12:34:04;29.62;41.96
77056;SHT30;67471;44.918;8.614;2023-05-28T12:37:09;29.12;43.16
77056;SHT30;67471;44.918;8.614;2023-05-28T12:40:12;29.41;42.51
77056;SHT30;67471;44.918;8.614;2023-05-28T12:43:16;29.49;42.42
77056;SHT30;67471;44.918;8.614;2023-05-28T12:46:20;29.22;42.44
77056;SHT30;67471;44.918;8.614;2023-05-28T12:49:24;28.59;42.92
77056;SHT30;67471;44.918;8.614;2023-05-28T12:52:28;28.77;42.24
77056;SHT30;67471;44.918;8.614;2023-05-28T12:55:32;28.50;40.15
77056;SHT30;67471;44.918;8.614;2023-05-28T12:58:36;28.91;39.16
77056;SHT30;67471;44.918;8.614;2023-05-28T13:01:40;29.04;40.88
77056;SHT30;67471;44.918;8.614;2023-05-28T13:04:44;29.59;40.45
77056;SHT30;67471;44.918;8.614;2023-05-28T13:07:47;30.07;39.73
77056;SHT30;67471;44.918;8.614;2023-05-28T13:10:51;30.21;39.85
77056;SHT30;67471;44.918;8.614;2023-05-28T13:13:55;30.18;39.69
77056;SHT30;67471;44.918;8.614;2023-05-28T13:16:59;30.14;38.93
77056;SHT30;67471;44.918;8.614;2023-05-28T13:20:03;30.32;39.04
77056;SHT30;67471;44.918;8.614;2023-05-28T13:23:13;30.20;38.63
77056;SHT30;67471;44.918;8.614;2023-05-28T13:26:17;30.52;38.94
77056;SHT30;67471;44.918;8.614;2023-05-28T13:29:21;30.67;38.66
77056;SHT30;67471;44.918;8.614;2023-05-28T13:32:25;30.62;39.08
77056;SHT30;67471;44.918;8.614;2023-05-28T13:35:29;30.67;38.44
77056;SHT30;67471;44.918;8.614;2023-05-28T13:38:33;30.78;38.17
77056;SHT30;67471;44.918;8.614;2023-05-28T13:41:37;29.89;39.42
77056;SHT30;67471;44.918;8.614;2023-05-28T13:44:41;29.86;39.19
77056;SHT30;67471;44.918;8.614;2023-05-28T13:47:45;29.77;39.61
77056;SHT30;67471;44.918;8.614;2023-05-28T13:50:48;29.72;39.90
77056;SHT30;67471;44.918;8.614;2023-05-28T13:53:52;29.51;40.16
77056;SHT30;67471;44.918;8.614;2023-05-28T13:56:56;29.82;38.84
77056;SHT30;67471;44.918;8.614;2023-05-28T14:00:00;30.16;38.33
77056;SHT30;67471;44.918;8.614;2023-05-28T14:03:13;30.52;37.10
77056;SHT30;67471;44.918;8.614;2023-05-28T14:06:17;30.64;37.15
77056;SHT30;67471;44.918;8.614;2023-05-28T14:09:21;29.97;38.58
77056;SHT30;67471;44.918;8.614;2023-05-28T14:12:25;30.06;38.43
77056;SHT30;67471;44.918;8.614;2023-05-28T14:15:28;29.93;38.36
77056;SHT30;67471;44.918;8.614;2023-05-28T14:18:32;29.43;38.84
77056;SHT30;67471;44.918;8.614;2023-05-28T14:21:36;29.87;38.14
77056;SHT30;67471;44.918;8.614;2023-05-28T14:24:40;29.97;37.10
77056;SHT30;67471;44.918;8.614;2023-05-28T14:27:44;30.07;37.37
77056;SHT30;67471;44.918;8.614;2023-05-28T14:30:48;30.35;37.47
77056;SHT30;67471;44.918;8.614;2023-05-28T14:33:51;30.30;37.46
77056;SHT30;67471;44.918;8.614;2023-05-28T14:36:55;30.38;37.10
77056;SHT30;67471;44.918;8.614;2023-05-28T14:39:59;30.40;36.87
77056;SHT30;67471;44.918;8.614;2023-05-28T14:43:03;30.49;37.16
77056;SHT30;67471;44.918;8.614;2023-05-28T14:46:07;30.17;37.53
77056;SHT30;67471;44.918;8.614;2023-05-28T14:49:11;30.13;37.87
77056;SHT30;67471;44.918;8.614;2023-05-28T14:52:26;29.59;38.33
77056;SHT30;67471;44.918;8.614;2023-05-28T14:55:30;29.48;37.91
77056;SHT30;67471;44.918;8.614;2023-05-28T14:58:34;29.48;37.92
77056;SHT30;67471;44.918;8.614;2023-05-28T15:01:38;29.59;38.06
77056;SHT30;67471;44.918;8.614;2023-05-28T15:04:42;29.21;38.50
77056;SHT30;67471;44.918;8.614;2023-05-28T15:07:47;29.08;38.73
77056;SHT30;67471;44.918;8.614;2023-05-28T15:10:51;29.36;38.51
77056;SHT30;67471;44.918;8.614;2023-05-28T15:13:55;29.48;38.16
77056;SHT30;67471;44.918;8.614;2023-05-28T15:16:59;29.38;38.51
77056;SHT30;67471;44.918;8.614;2023-05-28T15:20:03;29.63;38.04
77056;SHT30;67471;44.918;8.614;2023-05-28T15:23:08;29.79;37.96
77056;SHT30;67471;44.918;8.614;2023-05-28T15:26:12;29.86;38.04
77056;SHT30;67471;44.918;8.614;2023-05-28T15:29:16;30.01;37.93
77056;SHT30;67471;44.918;8.614;2023-05-28T15:32:19;29.74;38.01
77056;SHT30;67471;44.918;8.614;2023-05-28T15:35:24;29.96;37.79
77056;SHT30;67471;44.918;8.614;2023-05-28T15:38:28;29.93;37.66
77056;SHT30;67471;44.918;8.614;2023-05-28T15:41:35;29.96;37.37
77056;SHT30;67471;44.918;8.614;2023-05-28T15:44:39;29.91;37.57
77056;SHT30;67471;44.918;8.614;2023-05-28T15:47:42;29.91;37.56
77056;SHT30;67471;44.918;8.614;2023-05-28T15:50:46;29.94;38.00
77056;SHT30;67471;44.918;8.614;2023-05-28T15:53:50;29.90;38.27
77056;SHT30;67471;44.918;8.614;2023-05-28T15:56:54;29.97;38.13
77056;SHT30;67471;44.918;8.614;2023-05-28T15:59:58;29.86;38.33
77056;SHT30;67471;44.918;8.614;2023-05-28T16:03:04;29.94;38.16
77056;SHT30;67471;44.918;8.614;2023-05-28T16:06:08;29.87;38.12
77056;SHT30;67471;44.918;8.614;2023-05-28T16:09:12;29.69;38.41
77056;SHT30;67471;44.918;8.614;2023-05-28T16:12:16;29.60;38.46
77056;SHT30;67471;44.918;8.614;2023-05-28T16:15:20;29.48;38.62
77056;SHT30;67471;44.918;8.614;2023-05-28T16:18:23;29.53;38.65
77056;SHT30;67471;44.918;8.614;2023-05-28T16:21:27;29.66;38.35
77056;SHT30;67471;44.918;8.614;2023-05-28T16:24:32;29.67;38.44
77056;SHT30;67471;44.918;8.614;2023-05-28T16:27:36;29.33;39.19
77056;SHT30;67471;44.918;8.614;2023-05-28T16:30:40;29.04;39.53
77056;SHT30;67471;44.918;8.614;2023-05-28T16:33:44;29.07;39.30
77056;SHT30;67471;44.918;8.614;2023-05-28T16:36:48;29.08;39.55
77056;SHT30;67471;44.918;8.614;2023-05-28T16:40:12;29.00;39.40
77056;SHT30;67471;44.918;8.614;2023-05-28T16:43:16;28.78;39.65
77056;SHT30;67471;44.918;8.614;2023-05-28T16:46:20;28.75;39.71
77056;SHT30;67471;44.918;8.614;2023-05-28T16:49:24;28.71;39.75
77056;SHT30;67471;44.918;8.614;2023-05-28T16:52:28;28.77;39.91
77056;SHT30;67471;44.918;8.614;2023-05-28T16:55:32;28.87;39.86
77056;SHT30;67471;44.918;8.614;2023-05-28T16:58:36;28.73;40.24
77056;SHT30;67471;44.918;8.614;2023-05-28T17:01:39;28.73;40.21
77056;SHT30;67471;44.918;8.614;2023-05-28T17:04:44;28.83;40.29
77056;SHT30;67471;44.918;8.614;2023-05-28T17:07:48;28.71;40.44
77056;SHT30;67471;44.918;8.614;2023-05-28T17:10:53;28.63;41.18
77056;SHT30;67471;44.918;8.614;2023-05-28T17:13:56;28.50;41.69
77056;SHT30;67471;44.918;8.614;2023-05-28T17:17:00;28.36;41.79
77056;SHT30;67471;44.918;8.614;2023-05-28T17:20:04;28.12;42.30
77056;SHT30;67471;44.918;8.614;2023-05-28T17:23:11;28.39;41.82
77056;SHT30;67471;44.918;8.614;2023-05-28T17:26:14;28.29;41.72
77056;SHT30;67471;44.918;8.614;2023-05-28T17:29:18;28.30;41.67
77056;SHT30;67471;44.918;8.614;2023-05-28T17:32:22;28.33;41.69
77056;SHT30;67471;44.918;8.614;2023-05-28T17:35:26;28.29;41.84
77056;SHT30;67471;44.918;8.614;2023-05-28T17:38:30;28.20;42.25
77056;SHT30;67471;44.918;8.614;2023-05-28T17:41:34;27.98;42.68
77056;SHT30;67471;44.918;8.614;2023-05-28T17:44:38;27.75;43.18
77056;SHT30;67471;44.918;8.614;2023-05-28T17:47:42;27.61;43.85
77056;SHT30;67471;44.918;8.614;2023-05-28T17:50:45;27.69;43.82
77056;SHT30;67471;44.918;8.614;2023-05-28T17:53:49;27.66;43.77
77056;SHT30;67471;44.918;8.614;2023-05-28T17:56:53;27.71;43.84
77056;SHT30;67471;44.918;8.614;2023-05-28T17:59:57;27.69;43.96
77056;SHT30;67471;44.918;8.614;2023-05-28T18:03:00;27.78;43.88
77056;SHT30;67471;44.918;8.614;2023-05-28T18:06:05;27.84;43.69
77056;SHT30;67471;44.918;8.614;2023-05-28T18:09:09;27.84;43.68
77056;SHT30;67471;44.918;8.614;2023-05-28T18:12:12;27.69;44.08
77056;SHT30;67471;44.918;8.614;2023-05-28T18:15:20;27.75;43.73
77056;SHT30;67471;44.918;8.614;2023-05-28T18:18:24;27.66;44.10
77056;SHT30;67471;44.918;8.614;2023-05-28T18:21:28;27.52;44.55
77056;SHT30;67471;44.918;8.614;2023-05-28T18:24:31;27.29;45.41
77056;SHT30;67471;44.918;8.614;2023-05-28T18:27:35;27.27;45.70
77056;SHT30;67471;44.918;8.614;2023-05-28T18:30:39;27.29;45.90
77056;SHT30;67471;44.918;8.614;2023-05-28T18:33:43;27.30;46.03
77056;SHT30;67471;44.918;8.614;2023-05-28T18:36:47;27.26;46.18
77056;SHT30;67471;44.918;8.614;2023-05-28T18:39:50;27.27;46.14
77056;SHT30;67471;44.918;8.614;2023-05-28T18:42:56;27.10;46.89
77056;SHT30;67471;44.918;8.614;2023-05-28T18:46:01;27.17;47.25
77056;SHT30;67471;44.918;8.614;2023-05-28T18:49:04;27.14;47.68
77056;SHT30;67471;44.918;8.614;2023-05-28T18:52:08;26.99;47.93
77056;SHT30;67471;44.918;8.614;2023-05-28T18:55:15;26.93;48.13
77056;SHT30;67471;44.918;8.614;2023-05-28T18:58:19;26.69;48.31
77056;SHT30;67471;44.918;8.614;2023-05-28T19:01:22;26.56;48.59
77056;SHT30;67471;44.918;8.614;2023-05-28T19:04:26;26.63;48.44
77056;SHT30;67471;44.918;8.614;2023-05-28T19:07:30;26.46;48.93
77056;SHT30;67471;44.918;8.614;2023-05-28T19:10:34;26.51;48.89
77056;SHT30;67471;44.918;8.614;2023-05-28T19:13:38;26.59;48.83
77056;SHT30;67471;44.918;8.614;2023-05-28T19:16:41;26.41;49.47
77056;SHT30;67471;44.918;8.614;2023-05-28T19:19:45;26.26;50.12
77056;SHT30;67471;44.918;8.614;2023-05-28T19:22:49;26.01;50.83
77056;SHT30;67471;44.918;8.614;2023-05-28T19:25:53;26.06;50.84
77056;SHT30;67471;44.918;8.614;2023-05-28T19:28:57;26.02;51.66